sensor_id;sensor_type;location;lat;lon;timestamp;pressure;altitude;pressure_sealevel;temperature;humidity
2675;BME280;1347;42.122;24.746;2023-01-30T00:00:52;99947.25;;;3.91;75.27
2675;BME280;1347;42.122;24.746;2023-01-30T00:03:22;99953.78;;;3.90;75.41
2675;BME280;1347;42.122;24.746;2023-01-30T00:05:49;99952.03;;;3.86;75.36
2675;BME280;1347;42.122;24.746;2023-01-30T00:08:16;99954.59;;;3.91;75.36
2675;BME280;1347;42.122;24.746;2023-01-30T00:10:43;99949.31;;;3.86;75.27
2675;BME280;1347;42.122;24.746;2023-01-30T00:13:11;99941.00;;;3.82;75.69
2675;BME280;1347;42.122;24.746;2023-01-30T00:15:40;99947.22;;;3.83;75.73
2675;BME280;1347;42.122;24.746;2023-01-30T00:18:07;99949.28;;;3.77;75.89
2675;BME280;1347;42.122;24.746;2023-01-30T00:20:36;99945.63;;;3.82;76.15
2675;BME280;1347;42.122;24.746;2023-01-30T00:23:03;99946.28;;;3.87;75.86
2675;BME280;1347;42.122;24.746;2023-01-30T00:25:30;99949.47;;;3.89;76.07
2675;BME280;1347;42.122;24.746;2023-01-30T00:27:58;99951.41;;;3.97;75.69
2675;BME280;1347;42.122;24.746;2023-01-30T00:30:26;99944.56;;;4.00;75.48
2675;BME280;1347;42.122;24.746;2023-01-30T00:32:54;99940.91;;;4.04;75.49
2675;BME280;1347;42.122;24.746;2023-01-30T00:35:21;99939.81;;;4.05;75.33
2675;BME280;1347;42.122;24.746;2023-01-30T00:37:55;99946.31;;;3.96;75.62
2675;BME280;1347;42.122;24.746;2023-01-30T00:40:22;99939.00;;;4.05;75.70
2675;BME280;1347;42.122;24.746;2023-01-30T00:42:50;99943.75;;;3.99;75.56
2675;BME280;1347;42.122;24.746;2023-01-30T00:45:34;99935.00;;;3.94;75.50
2675;BME280;1347;42.122;24.746;2023-01-30T00:48:20;99940.41;;;3.94;75.68
2675;BME280;1347;42.122;24.746;2023-01-30T00:50:47;99947.28;;;4.00;75.71
2675;BME280;1347;42.122;24.746;2023-01-30T00:53:16;99942.50;;;3.97;75.84
2675;BME280;1347;42.122;24.746;2023-01-30T00:55:43;99949.78;;;3.88;76.07
2675;BME280;1347;42.122;24.746;2023-01-30T00:58:11;99937.53;;;3.90;76.18
2675;BME280;1347;42.122;24.746;2023-01-30T01:00:38;99944.22;;;3.84;76.62
2675;BME280;1347;42.122;24.746;2023-01-30T01:03:05;99939.59;;;3.85;76.69
2675;BME280;1347;42.122;24.746;2023-01-30T01:05:32;99935.25;;;3.75;77.36
2675;BME280;1347;42.122;24.746;2023-01-30T01:07:59;99937.97;;;3.75;77.29
2675;BME280;1347;42.122;24.746;2023-01-30T01:10:27;99929.84;;;3.75;77.20
2675;BME280;1347;42.122;24.746;2023-01-30T01:12:54;99927.75;;;3.72;76.78
2675;BME280;1347;42.122;24.746;2023-01-30T01:15:22;99921.50;;;3.72;76.76
2675;BME280;1347;42.122;24.746;2023-01-30T01:17:50;99923.13;;;3.73;76.99
2675;BME280;1347;42.122;24.746;2023-01-30T01:20:18;99922.09;;;3.60;76.77
2675;BME280;1347;42.122;24.746;2023-01-30T01:22:45;99917.03;;;3.67;77.02
2675;BME280;1347;42.122;24.746;2023-01-30T01:25:15;99915.09;;;3.67;76.79
2675;BME280;1347;42.122;24.746;2023-01-30T01:27:45;99910.97;;;3.70;76.82
2675;BME280;1347;42.122;24.746;2023-01-30T01:30:12;99912.41;;;3.67;76.41
2675;BME280;1347;42.122;24.746;2023-01-30T01:32:40;99912.75;;;3.66;76.79
2675;BME280;1347;42.122;24.746;2023-01-30T01:35:07;99904.91;;;3.64;76.56
2675;BME280;1347;42.122;24.746;2023-01-30T01:37:34;99907.63;;;3.64;76.32
2675;BME280;1347;42.122;24.746;2023-01-30T01:40:01;99904.72;;;3.61;76.07
2675;BME280;1347;42.122;24.746;2023-01-30T01:42:47;99907.75;;;3.59;75.86
2675;BME280;1347;42.122;24.746;2023-01-30T01:45:17;99902.19;;;3.56;75.94
2675;BME280;1347;42.122;24.746;2023-01-30T01:47:52;99899.28;;;3.52;76.38
2675;BME280;1347;42.122;24.746;2023-01-30T01:50:26;99904.25;;;3.67;75.95
2675;BME280;1347;42.122;24.746;2023-01-30T01:52:57;99908.75;;;3.72;75.83
2675;BME280;1347;42.122;24.746;2023-01-30T01:55:27;99902.22;;;3.73;75.26
2675;BME280;1347;42.122;24.746;2023-01-30T01:57:57;99909.88;;;3.71;75.14
2675;BME280;1347;42.122;24.746;2023-01-30T02:00:26;99909.06;;;3.70;75.48
2675;BME280;1347;42.122;24.746;2023-01-30T02:02:56;99910.16;;;3.61;75.03
2675;BME280;1347;42.122;24.746;2023-01-30T02:05:26;99904.91;;;3.64;75.19
2675;BME280;1347;42.122;24.746;2023-01-30T02:07:59;99908.28;;;3.70;75.13
2675;BME280;1347;42.122;24.746;2023-01-30T02:10:34;99906.63;;;3.60;75.12
2675;BME280;1347;42.122;24.746;2023-01-30T02:13:04;99900.75;;;3.67;75.01
2675;BME280;1347;42.122;24.746;2023-01-30T02:15:31;99901.25;;;3.69;74.78
2675;BME280;1347;42.122;24.746;2023-01-30T02:17:58;99896.31;;;3.71;74.54
2675;BME280;1347;42.122;24.746;2023-01-30T02:20:30;99893.41;;;3.67;74.28
2675;BME280;1347;42.122;24.746;2023-01-30T02:32:13;99883.84;;;3.61;74.11
2675;BME280;1347;42.122;24.746;2023-01-30T02:34:50;99887.66;;;3.60;74.28
2675;BME280;1347;42.122;24.746;2023-01-30T02:37:32;99885.91;;;3.56;73.88
2675;BME280;1347;42.122;24.746;2023-01-30T02:40:17;99880.50;;;3.56;74.18
2675;BME280;1347;42.122;24.746;2023-01-30T02:42:57;99890.03;;;3.53;74.06
2675;BME280;1347;42.122;24.746;2023-01-30T02:45:31;99887.47;;;3.48;74.35
2675;BME280;1347;42.122;24.746;2023-01-30T02:48:03;99882.34;;;3.47;74.10
2675;BME280;1347;42.122;24.746;2023-01-30T02:50:35;99886.03;;;3.51;74.37
2675;BME280;1347;42.122;24.746;2023-01-30T02:53:05;99890.97;;;3.49;74.57
2675;BME280;1347;42.122;24.746;2023-01-30T02:55:32;99885.84;;;3.47;74.46
2675;BME280;1347;42.122;24.746;2023-01-30T02:58:01;99876.78;;;3.43;74.23
2675;BME280;1347;42.122;24.746;2023-01-30T03:00:39;99882.50;;;3.42;74.72
2675;BME280;1347;42.122;24.746;2023-01-30T03:03:28;99879.78;;;3.42;74.41
2675;BME280;1347;42.122;24.746;2023-01-30T03:06:21;99880.09;;;3.40;74.56
2675;BME280;1347;42.122;24.746;2023-01-30T03:09:02;99874.19;;;3.38;74.29
2675;BME280;1347;42.122;24.746;2023-01-30T03:11:39;99873.09;;;3.48;74.06
2675;BME280;1347;42.122;24.746;2023-01-30T03:14:17;99873.09;;;3.48;74.05
2675;BME280;1347;42.122;24.746;2023-01-30T03:16:46;99873.88;;;3.40;74.11
2675;BME280;1347;42.122;24.746;2023-01-30T03:19:17;99872.28;;;3.39;73.99
2675;BME280;1347;42.122;24.746;2023-01-30T03:21:45;99873.41;;;3.46;73.86
2675;BME280;1347;42.122;24.746;2023-01-30T03:24:12;99864.97;;;3.48;73.54
2675;BME280;1347;42.122;24.746;2023-01-30T03:26:43;99867.34;;;3.41;73.73
2675;BME280;1347;42.122;24.746;2023-01-30T03:29:11;99861.16;;;3.49;74.08
2675;BME280;1347;42.122;24.746;2023-01-30T03:31:38;99862.44;;;3.51;73.91
2675;BME280;1347;42.122;24.746;2023-01-30T03:34:05;99862.09;;;3.36;74.10
2675;BME280;1347;42.122;24.746;2023-01-30T03:36:33;99856.03;;;3.47;74.04
2675;BME280;1347;42.122;24.746;2023-01-30T03:39:00;99855.25;;;3.47;74.10
2675;BME280;1347;42.122;24.746;2023-01-30T03:41:27;99854.63;;;3.50;73.95
2675;BME280;1347;42.122;24.746;2023-01-30T03:43:54;99857.53;;;3.53;73.66
2675;BME280;1347;42.122;24.746;2023-01-30T03:46:21;99852.91;;;3.54;73.58
2675;BME280;1347;42.122;24.746;2023-01-30T03:48:48;99858.94;;;3.51;73.74
2675;BME280;1347;42.122;24.746;2023-01-30T03:51:15;99857.34;;;3.50;73.33
2675;BME280;1347;42.122;24.746;2023-01-30T03:53:43;99861.00;;;3.45;73.21
2675;BME280;1347;42.122;24.746;2023-01-30T03:56:10;99860.50;;;3.43;73.46
2675;BME280;1347;42.122;24.746;2023-01-30T03:58:37;99865.28;;;3.46;72.98
2675;BME280;1347;42.122;24.746;2023-01-30T04:01:04;99858.75;;;3.47;73.01
2675;BME280;1347;42.122;24.746;2023-01-30T04:03:32;99860.34;;;3.48;73.32
2675;BME280;1347;42.122;24.746;2023-01-30T04:05:59;99861.66;;;3.51;73.46
2675;BME280;1347;42.122;24.746;2023-01-30T04:08:26;99856.03;;;3.47;72.89
2675;BME280;1347;42.122;24.746;2023-01-30T04:10:54;99857.16;;;3.46;73.35
2675;BME280;1347;42.122;24.746;2023-01-30T04:13:21;99857.31;;;3.41;73.31
2675;BME280;1347;42.122;24.746;2023-01-30T04:15:48;99857.31;;;3.41;73.31
2675;BME280;1347;42.122;24.746;2023-01-30T04:18:15;99854.88;;;3.31;73.76
2675;BME280;1347;42.122;24.746;2023-01-30T04:20:42;99852.97;;;3.31;73.45
2675;BME280;1347;42.122;24.746;2023-01-30T04:23:08;99847.38;;;3.28;73.67
2675;BME280;1347;42.122;24.746;2023-01-30T04:25:35;99859.00;;;3.28;73.46
2675;BME280;1347;42.122;24.746;2023-01-30T04:28:04;99856.94;;;3.25;73.57
2675;BME280;1347;42.122;24.746;2023-01-30T04:30:31;99857.06;;;3.20;73.57
2675;BME280;1347;42.122;24.746;2023-01-30T04:32:58;99850.38;;;3.26;73.20
2675;BME280;1347;42.122;24.746;2023-01-30T04:35:24;99853.56;;;3.20;73.21
2675;BME280;1347;42.122;24.746;2023-01-30T04:37:51;99848.81;;;3.25;73.33
2675;BME280;1347;42.122;24.746;2023-01-30T04:40:18;99850.72;;;3.25;72.87
2675;BME280;1347;42.122;24.746;2023-01-30T04:42:45;99854.38;;;3.20;72.84
2675;BME280;1347;42.122;24.746;2023-01-30T04:45:14;99853.56;;;3.20;73.02
2675;BME280;1347;42.122;24.746;2023-01-30T04:47:40;99861.06;;;3.23;73.13
2675;BME280;1347;42.122;24.746;2023-01-30T04:50:09;99845.63;;;3.23;73.06
2675;BME280;1347;42.122;24.746;2023-01-30T04:52:36;99857.38;;;3.19;72.94
2675;BME280;1347;42.122;24.746;2023-01-30T04:55:03;99853.88;;;3.18;72.63
2675;BME280;1347;42.122;24.746;2023-01-30T04:57:30;99854.66;;;3.19;72.73
2675;BME280;1347;42.122;24.746;2023-01-30T04:59:57;99845.63;;;3.23;72.57
2675;BME280;1347;42.122;24.746;2023-01-30T05:02:25;99853.75;;;3.23;72.93
2675;BME280;1347;42.122;24.746;2023-01-30T05:04:52;99839.09;;;3.24;72.68
2675;BME280;1347;42.122;24.746;2023-01-30T05:07:19;99843.41;;;3.25;72.61
2675;BME280;1347;42.122;24.746;2023-01-30T05:09:46;99845.44;;;3.20;72.43
2675;BME280;1347;42.122;24.746;2023-01-30T05:12:12;99853.53;;;3.11;73.08
2675;BME280;1347;42.122;24.746;2023-01-30T05:14:39;99847.44;;;3.06;72.91
2675;BME280;1347;42.122;24.746;2023-01-30T05:17:06;99851.88;;;3.02;73.70
2675;BME280;1347;42.122;24.746;2023-01-30T05:19:35;99856.81;;;3.00;73.63
2675;BME280;1347;42.122;24.746;2023-01-30T05:22:02;99857.50;;;3.05;73.48
2675;BME280;1347;42.122;24.746;2023-01-30T05:24:29;99864.38;;;3.11;73.01
2675;BME280;1347;42.122;24.746;2023-01-30T05:26:56;99858.44;;;3.09;73.09
2675;BME280;1347;42.122;24.746;2023-01-30T05:29:23;99855.09;;;3.04;73.60
2675;BME280;1347;42.122;24.746;2023-01-30T05:31:50;99857.03;;;3.12;73.08
2675;BME280;1347;42.122;24.746;2023-01-30T05:34:17;99848.28;;;3.15;72.98
2675;BME280;1347;42.122;24.746;2023-01-30T05:36:45;99853.03;;;3.09;73.00
2675;BME280;1347;42.122;24.746;2023-01-30T05:39:12;99857.59;;;3.00;73.61
2675;BME280;1347;42.122;24.746;2023-01-30T05:41:39;99857.25;;;2.93;73.82
2675;BME280;1347;42.122;24.746;2023-01-30T05:44:06;99856.31;;;2.97;73.90
2675;BME280;1347;42.122;24.746;2023-01-30T05:46:33;99858.53;;;2.95;73.70
2675;BME280;1347;42.122;24.746;2023-01-30T05:49:00;99853.44;;;2.94;73.69
2675;BME280;1347;42.122;24.746;2023-01-30T05:51:29;99852.16;;;2.91;73.71
2675;BME280;1347;42.122;24.746;2023-01-30T05:53:57;99850.25;;;2.92;73.45
2675;BME280;1347;42.122;24.746;2023-01-30T05:56:24;99845.44;;;2.89;73.64
2675;BME280;1347;42.122;24.746;2023-01-30T05:58:52;99854.81;;;2.83;73.84
2675;BME280;1347;42.122;24.746;2023-01-30T06:01:20;99844.47;;;2.85;73.81
2675;BME280;1347;42.122;24.746;2023-01-30T06:03:48;99853.13;;;2.95;73.63
2675;BME280;1347;42.122;24.746;2023-01-30T06:06:15;99857.75;;;2.95;73.39
2675;BME280;1347;42.122;24.746;2023-01-30T06:08:43;99858.69;;;2.90;73.78
2675;BME280;1347;42.122;24.746;2023-01-30T06:11:13;99861.88;;;2.92;73.47
2675;BME280;1347;42.122;24.746;2023-01-30T06:13:40;99857.25;;;2.93;73.64
2675;BME280;1347;42.122;24.746;2023-01-30T06:16:09;99859.81;;;2.98;73.50
2675;BME280;1347;42.122;24.746;2023-01-30T06:18:36;99863.03;;;3.00;73.57
2675;BME280;1347;42.122;24.746;2023-01-30T06:21:04;99869.47;;;2.82;73.64
2675;BME280;1347;42.122;24.746;2023-01-30T06:23:31;99868.91;;;2.93;73.61
2675;BME280;1347;42.122;24.746;2023-01-30T06:25:58;99861.84;;;2.84;73.53
2675;BME280;1347;42.122;24.746;2023-01-30T06:28:27;99861.88;;;2.92;73.36
2675;BME280;1347;42.122;24.746;2023-01-30T06:30:54;99862.22;;;3.00;73.37
2675;BME280;1347;42.122;24.746;2023-01-30T06:33:20;99867.94;;;2.98;72.74
2675;BME280;1347;42.122;24.746;2023-01-30T06:35:49;99863.22;;;3.04;72.67
2675;BME280;1347;42.122;24.746;2023-01-30T06:38:17;99879.59;;;2.99;73.03
2675;BME280;1347;42.122;24.746;2023-01-30T06:40:46;99874.38;;;3.11;72.86
2675;BME280;1347;42.122;24.746;2023-01-30T06:43:13;99876.44;;;3.05;72.52
2675;BME280;1347;42.122;24.746;2023-01-30T06:45:42;99873.09;;;3.08;72.18
2675;BME280;1347;42.122;24.746;2023-01-30T06:48:09;99876.19;;;3.15;72.33
2675;BME280;1347;42.122;24.746;2023-01-30T06:50:35;99870.56;;;3.12;72.10
2675;BME280;1347;42.122;24.746;2023-01-30T06:53:04;99873.59;;;3.10;72.06
2675;BME280;1347;42.122;24.746;2023-01-30T06:55:32;99880.41;;;3.08;72.36
2675;BME280;1347;42.122;24.746;2023-01-30T06:58:01;99874.03;;;3.04;72.14
2675;BME280;1347;42.122;24.746;2023-01-30T07:00:28;99870.38;;;3.08;72.32
2675;BME280;1347;42.122;24.746;2023-01-30T07:02:56;99879.31;;;3.09;72.51
2675;BME280;1347;42.122;24.746;2023-01-30T07:05:23;99872.78;;;3.10;72.23
2675;BME280;1347;42.122;24.746;2023-01-30T07:07:51;99883.34;;;3.20;71.70
2675;BME280;1347;42.122;24.746;2023-01-30T07:10:18;99873.47;;;3.15;72.06
2675;BME280;1347;42.122;24.746;2023-01-30T07:12:44;99875.84;;;3.17;71.68
2675;BME280;1347;42.122;24.746;2023-01-30T07:15:12;99877.31;;;3.23;71.43
2675;BME280;1347;42.122;24.746;2023-01-30T07:17:39;99880.38;;;3.30;71.55
2675;BME280;1347;42.122;24.746;2023-01-30T07:20:09;99885.31;;;3.28;71.19
2675;BME280;1347;42.122;24.746;2023-01-30T07:22:37;99885.19;;;3.33;71.34
2675;BME280;1347;42.122;24.746;2023-01-30T07:25:05;99881.66;;;3.32;71.56
2675;BME280;1347;42.122;24.746;2023-01-30T07:27:32;99882.00;;;3.40;71.23
2675;BME280;1347;42.122;24.746;2023-01-30T07:29:59;99874.50;;;3.37;71.05
2675;BME280;1347;42.122;24.746;2023-01-30T07:32:26;99892.81;;;3.31;71.66
2675;BME280;1347;42.122;24.746;2023-01-30T07:34:53;99887.88;;;3.33;71.67
2675;BME280;1347;42.122;24.746;2023-01-30T07:37:21;99878.50;;;3.39;71.47
2675;BME280;1347;42.122;24.746;2023-01-30T07:39:48;99874.88;;;3.44;71.27
2675;BME280;1347;42.122;24.746;2023-01-30T07:42:15;99882.69;;;3.45;70.82
2675;BME280;1347;42.122;24.746;2023-01-30T07:44:41;99877.41;;;3.49;70.78
2675;BME280;1347;42.122;24.746;2023-01-30T07:47:08;99867.34;;;3.41;71.30
2675;BME280;1347;42.122;24.746;2023-01-30T07:49:35;99870.69;;;3.38;71.09
2675;BME280;1347;42.122;24.746;2023-01-30T07:52:02;99879.47;;;3.43;70.93
2675;BME280;1347;42.122;24.746;2023-01-30T07:54:30;99875.66;;;3.44;71.02
2675;BME280;1347;42.122;24.746;2023-01-30T07:56:57;99878.72;;;3.51;70.92
2675;BME280;1347;42.122;24.746;2023-01-30T07:59:24;99874.72;;;3.49;71.02
2675;BME280;1347;42.122;24.746;2023-01-30T08:01:52;99866.94;;;3.56;70.83
2675;BME280;1347;42.122;24.746;2023-01-30T08:04:18;99868.19;;;3.58;70.62
2675;BME280;1347;42.122;24.746;2023-01-30T08:06:45;99869.81;;;3.68;70.70
2675;BME280;1347;42.122;24.746;2023-01-30T08:09:12;99866.59;;;3.57;70.72
2675;BME280;1347;42.122;24.746;2023-01-30T08:11:41;99868.50;;;3.57;70.68
2675;BME280;1347;42.122;24.746;2023-01-30T08:14:07;99875.72;;;3.61;70.15
2675;BME280;1347;42.122;24.746;2023-01-30T08:16:34;99862.81;;;3.67;69.83
2675;BME280;1347;42.122;24.746;2023-01-30T08:19:03;99871.91;;;3.62;70.12
2675;BME280;1347;42.122;24.746;2023-01-30T08:21:30;99868.72;;;3.69;69.87
2675;BME280;1347;42.122;24.746;2023-01-30T08:23:57;99859.94;;;3.63;69.97
2675;BME280;1347;42.122;24.746;2023-01-30T08:26:24;99859.28;;;3.66;70.13
2675;BME280;1347;42.122;24.746;2023-01-30T08:28:52;99862.66;;;3.72;70.09
2675;BME280;1347;42.122;24.746;2023-01-30T08:31:20;99863.59;;;3.67;70.28
2675;BME280;1347;42.122;24.746;2023-01-30T08:33:47;99859.78;;;3.77;70.01
2675;BME280;1347;42.122;24.746;2023-01-30T08:36:14;99858.53;;;3.75;70.30
2675;BME280;1347;42.122;24.746;2023-01-30T08:38:41;99855.81;;;3.75;69.78
2675;BME280;1347;42.122;24.746;2023-01-30T08:41:08;99852.81;;;3.85;69.86
2675;BME280;1347;42.122;24.746;2023-01-30T08:43:35;99853.31;;;3.95;69.66
2675;BME280;1347;42.122;24.746;2023-01-30T08:46:03;99848.66;;;3.87;69.32
2675;BME280;1347;42.122;24.746;2023-01-30T08:48:30;99852.50;;;3.95;69.30
2675;BME280;1347;42.122;24.746;2023-01-30T08:50:57;99863.81;;;3.88;69.07
2675;BME280;1347;42.122;24.746;2023-01-30T08:53:24;99852.81;;;3.93;68.82
2675;BME280;1347;42.122;24.746;2023-01-30T08:55:52;99854.59;;;4.06;68.59
2675;BME280;1347;42.122;24.746;2023-01-30T08:58:20;99851.41;;;4.04;68.07
2675;BME280;1347;42.122;24.746;2023-01-30T09:00:47;99844.06;;;3.96;68.19
2675;BME280;1347;42.122;24.746;2023-01-30T09:03:16;99846.13;;;3.99;68.43
2675;BME280;1347;42.122;24.746;2023-01-30T09:05:44;99845.50;;;4.02;68.50
2675;BME280;1347;42.122;24.746;2023-01-30T09:08:11;99844.69;;;4.02;68.28
2675;BME280;1347;42.122;24.746;2023-01-30T09:10:38;99838.94;;;3.95;68.97
2675;BME280;1347;42.122;24.746;2023-01-30T09:13:10;99841.84;;;4.07;68.60
2675;BME280;1347;42.122;24.746;2023-01-30T09:15:40;99844.56;;;4.07;68.62
2675;BME280;1347;42.122;24.746;2023-01-30T09:18:07;99833.03;;;4.10;68.60
2675;BME280;1347;42.122;24.746;2023-01-30T09:20:44;99834.50;;;4.25;68.18
2675;BME280;1347;42.122;24.746;2023-01-30T09:23:11;99824.75;;;4.24;68.18
2675;BME280;1347;42.122;24.746;2023-01-30T09:25:38;99829.06;;;4.33;68.08
2675;BME280;1347;42.122;24.746;2023-01-30T09:28:06;99825.22;;;4.43;67.36
2675;BME280;1347;42.122;24.746;2023-01-30T09:30:33;99823.47;;;4.38;67.96
2675;BME280;1347;42.122;24.746;2023-01-30T09:33:02;99815.66;;;4.46;67.53
2675;BME280;1347;42.122;24.746;2023-01-30T09:35:29;99803.50;;;4.52;67.43
2675;BME280;1347;42.122;24.746;2023-01-30T09:37:57;99802.56;;;4.48;67.54
2675;BME280;1347;42.122;24.746;2023-01-30T09:40:28;99795.66;;;4.50;67.51
2675;BME280;1347;42.122;24.746;2023-01-30T09:43:09;99795.53;;;4.47;66.84
2675;BME280;1347;42.122;24.746;2023-01-30T09:45:48;99790.72;;;4.52;66.76
2675;BME280;1347;42.122;24.746;2023-01-30T09:48:25;99790.56;;;4.57;66.89
2675;BME280;1347;42.122;24.746;2023-01-30T09:51:10;99777.44;;;4.68;66.71
2675;BME280;1347;42.122;24.746;2023-01-30T09:53:58;99784.44;;;4.69;66.84
2675;BME280;1347;42.122;24.746;2023-01-30T09:56:27;99790.03;;;4.72;66.10
2675;BME280;1347;42.122;24.746;2023-01-30T09:58:58;99776.66;;;4.59;66.25
2675;BME280;1347;42.122;24.746;2023-01-30T10:01:34;99768.97;;;4.61;65.95
2675;BME280;1347;42.122;24.746;2023-01-30T10:04:10;99770.88;;;4.69;66.66
2675;BME280;1347;42.122;24.746;2023-01-30T10:06:47;99757.03;;;5.00;65.77
2675;BME280;1347;42.122;24.746;2023-01-30T10:09:29;99751.25;;;5.01;64.75
2675;BME280;1347;42.122;24.746;2023-01-30T10:12:12;99746.47;;;5.07;64.47
2675;BME280;1347;42.122;24.746;2023-01-30T10:15:01;99745.97;;;5.05;64.19
2675;BME280;1347;42.122;24.746;2023-01-30T10:17:36;99723.34;;;4.92;64.53
2675;BME280;1347;42.122;24.746;2023-01-30T10:20:26;99722.00;;;5.07;64.62
2675;BME280;1347;42.122;24.746;2023-01-30T10:23:08;99720.03;;;5.16;64.65
2675;BME280;1347;42.122;24.746;2023-01-30T10:25:45;99715.19;;;5.22;63.59
2675;BME280;1347;42.122;24.746;2023-01-30T10:28:18;99716.69;;;5.10;64.26
2675;BME280;1347;42.122;24.746;2023-01-30T10:30:48;99710.09;;;5.20;63.92
2675;BME280;1347;42.122;24.746;2023-01-30T10:33:20;99699.81;;;5.05;63.52
2675;BME280;1347;42.122;24.746;2023-01-30T10:35:56;99689.53;;;4.81;63.91
2675;BME280;1347;42.122;24.746;2023-01-30T10:38:29;99682.44;;;4.89;64.21
2675;BME280;1347;42.122;24.746;2023-01-30T10:41:05;99688.78;;;5.01;64.07
2675;BME280;1347;42.122;24.746;2023-01-30T10:43:38;99680.16;;;4.99;63.97
2675;BME280;1347;42.122;24.746;2023-01-30T10:46:18;99675.72;;;4.95;64.12
2675;BME280;1347;42.122;24.746;2023-01-30T10:48:57;99667.69;;;5.07;63.41
2675;BME280;1347;42.122;24.746;2023-01-30T10:51:37;99659.88;;;5.26;62.99
2675;BME280;1347;42.122;24.746;2023-01-30T10:54:12;99651.59;;;5.43;62.94
2675;BME280;1347;42.122;24.746;2023-01-30T10:56:47;99649.66;;;5.44;62.96
2675;BME280;1347;42.122;24.746;2023-01-30T10:59:23;99627.00;;;5.73;61.59
2675;BME280;1347;42.122;24.746;2023-01-30T11:01:59;99635.91;;;5.61;61.88
2675;BME280;1347;42.122;24.746;2023-01-30T11:04:36;99626.13;;;6.02;61.16
2675;BME280;1347;42.122;24.746;2023-01-30T11:07:05;99622.22;;;5.90;60.46
2675;BME280;1347;42.122;24.746;2023-01-30T11:09:40;99616.28;;;6.09;60.26
2675;BME280;1347;42.122;24.746;2023-01-30T11:12:10;99604.28;;;6.10;59.91
2675;BME280;1347;42.122;24.746;2023-01-30T11:14:55;99604.28;;;6.22;60.15
2675;BME280;1347;42.122;24.746;2023-01-30T11:17:30;99603.84;;;6.45;60.13
2675;BME280;1347;42.122;24.746;2023-01-30T11:20:03;99592.72;;;6.25;60.04
2675;BME280;1347;42.122;24.746;2023-01-30T11:22:33;99588.31;;;6.45;59.55
2675;BME280;1347;42.122;24.746;2023-01-30T11:25:04;99596.13;;;6.47;59.40
2675;BME280;1347;42.122;24.746;2023-01-30T11:27:34;99587.72;;;6.15;59.66
2675;BME280;1347;42.122;24.746;2023-01-30T11:30:08;99571.38;;;6.15;60.06
2675;BME280;1347;42.122;24.746;2023-01-30T11:32:38;99567.06;;;6.14;60.19
2675;BME280;1347;42.122;24.746;2023-01-30T11:35:21;99567.38;;;6.01;60.28
2675;BME280;1347;42.122;24.746;2023-01-30T11:37:49;99557.28;;;5.89;60.08
2675;BME280;1347;42.122;24.746;2023-01-30T11:40:23;99561.66;;;5.81;60.56
2675;BME280;1347;42.122;24.746;2023-01-30T11:42:58;99539.63;;;5.95;60.47
2675;BME280;1347;42.122;24.746;2023-01-30T11:45:27;99540.63;;;6.03;59.52
2675;BME280;1347;42.122;24.746;2023-01-30T11:47:57;99539.63;;;5.95;60.13
2675;BME280;1347;42.122;24.746;2023-01-30T11:50:31;99538.75;;;5.82;60.46
2675;BME280;1347;42.122;24.746;2023-01-30T11:53:01;99529.28;;;5.88;61.17
2675;BME280;1347;42.122;24.746;2023-01-30T11:55:32;99536.22;;;5.98;60.08
2675;BME280;1347;42.122;24.746;2023-01-30T11:58:12;99527.59;;;5.96;60.08
2675;BME280;1347;42.122;24.746;2023-01-30T12:00:41;99523.19;;;6.04;59.92
2675;BME280;1347;42.122;24.746;2023-01-30T12:03:11;99523.97;;;6.04;60.45
2675;BME280;1347;42.122;24.746;2023-01-30T12:05:39;99517.53;;;6.09;60.45
2675;BME280;1347;42.122;24.746;2023-01-30T12:08:15;99507.78;;;6.20;59.66
2675;BME280;1347;42.122;24.746;2023-01-30T12:10:49;99503.81;;;6.17;58.20
2675;BME280;1347;42.122;24.746;2023-01-30T12:13:23;99500.97;;;6.14;56.43
2675;BME280;1347;42.122;24.746;2023-01-30T12:16:01;99492.34;;;6.12;58.30
2675;BME280;1347;42.122;24.746;2023-01-30T12:18:36;99481.91;;;6.02;59.37
2675;BME280;1347;42.122;24.746;2023-01-30T12:21:10;99483.78;;;5.77;59.60
2675;BME280;1347;42.122;24.746;2023-01-30T12:23:41;99488.34;;;5.85;59.35
2675;BME280;1347;42.122;24.746;2023-01-30T12:26:12;99479.50;;;5.76;60.34
2675;BME280;1347;42.122;24.746;2023-01-30T12:28:46;99477.41;;;5.61;60.16
2675;BME280;1347;42.122;24.746;2023-01-30T12:31:32;99481.28;;;5.60;59.07
2675;BME280;1347;42.122;24.746;2023-01-30T12:34:02;99480.50;;;5.71;59.51
2675;BME280;1347;42.122;24.746;2023-01-30T12:36:34;99479.09;;;5.53;60.42
2675;BME280;1347;42.122;24.746;2023-01-30T12:39:13;99472.44;;;5.63;60.08
2675;BME280;1347;42.122;24.746;2023-01-30T12:42:08;99469.84;;;5.66;60.43
2675;BME280;1347;42.122;24.746;2023-01-30T12:44:54;99467.13;;;5.66;60.87
2675;BME280;1347;42.122;24.746;2023-01-30T12:47:37;99468.81;;;5.59;60.80
2675;BME280;1347;42.122;24.746;2023-01-30T12:50:24;99464.25;;;5.50;60.11
2675;BME280;1347;42.122;24.746;2023-01-30T12:53:22;99453.03;;;5.52;59.98
2675;BME280;1347;42.122;24.746;2023-01-30T12:56:02;99450.75;;;5.42;59.43
2675;BME280;1347;42.122;24.746;2023-01-30T12:58:40;99448.03;;;5.42;58.96
2675;BME280;1347;42.122;24.746;2023-01-30T13:01:19;99439.00;;;5.50;58.27
2675;BME280;1347;42.122;24.746;2023-01-30T13:03:57;99434.47;;;5.54;57.78
2675;BME280;1347;42.122;24.746;2023-01-30T13:06:39;99428.81;;;5.47;57.54
2675;BME280;1347;42.122;24.746;2023-01-30T13:09:21;99425.97;;;5.43;57.31
2675;BME280;1347;42.122;24.746;2023-01-30T13:12:01;99425.72;;;5.36;57.59
2675;BME280;1347;42.122;24.746;2023-01-30T13:14:34;99438.63;;;5.27;57.85
2675;BME280;1347;42.122;24.746;2023-01-30T13:17:19;99428.88;;;5.26;58.17
2675;BME280;1347;42.122;24.746;2023-01-30T13:19:55;99421.38;;;5.23;58.44
2675;BME280;1347;42.122;24.746;2023-01-30T13:22:29;99418.09;;;5.17;58.80
2675;BME280;1347;42.122;24.746;2023-01-30T13:25:03;99416.88;;;5.27;59.01
2675;BME280;1347;42.122;24.746;2023-01-30T13:27:36;99412.00;;;5.33;59.83
2675;BME280;1347;42.122;24.746;2023-01-30T13:30:06;99407.25;;;5.42;60.66
2675;BME280;1347;42.122;24.746;2023-01-30T13:32:39;99408.53;;;5.57;60.59
2675;BME280;1347;42.122;24.746;2023-01-30T13:35:14;99406.63;;;5.57;60.54
2675;BME280;1347;42.122;24.746;2023-01-30T13:37:50;99412.81;;;5.33;59.85
2675;BME280;1347;42.122;24.746;2023-01-30T13:40:21;99410.16;;;5.12;59.33
2675;BME280;1347;42.122;24.746;2023-01-30T13:42:55;99405.75;;;5.20;59.21
2675;BME280;1347;42.122;24.746;2023-01-30T13:45:28;99405.88;;;5.24;57.81
2675;BME280;1347;42.122;24.746;2023-01-30T13:48:08;99397.25;;;5.22;57.93
2675;BME280;1347;42.122;24.746;2023-01-30T13:50:51;99401.13;;;5.33;57.72